DTTZ/TOE METAR and TAF weather

Enter ICAO airport designator
Station Type Date Time Source
DTTZ METAR 2020/09/18 08:00 UTC NOAA

DTTZ 180800Z 12007KT CAVOK 28/15 Q1018


Station Type Date Time Source
DTTZ Decoded METAR 2020/09/18 08:00 UTC NOAA

Tozeur, Tunisia (DTTZ) 33-55N 008-06E 93M
Sep 18, 2020 - 04:00 AM EDT / 2020.09.18 0800 UTC
Wind: from the ESE (120 degrees) at 8 MPH (7 KT):0
Visibility: greater than 7 mile(s):0
Temperature: 82 F (28 C)
Dew Point: 59 F (15 C)
Relative Humidity: 45%
Pressure (altimeter): 30.06 in. Hg (1018 hPa)
ob: DTTZ 180800Z 12007KT CAVOK 28/15 Q1018
cycle: 8

Station Type Date Time Source
DTTZ TAF 2020/09/18 06:57 UTC NOAA

TAF DTTZ 180500Z 1806/1906 11010KT CAVOK
BECMG 1808/1810 25010KT 9999 FEW030
TEMPO 1819/1824 VRB03KT
BECMG 1900/1902 09010KT

Example: see airport list